Torrington, Connecticut
Current Conditions -  °F | °C
As of 4:15 AM on Monday 22 Dec 2014 (Local Time) from KOXC Reporting Station
Overcast Overcast  
Wind Chill: 34°   Ceiling: 2200
Heat Index: 34°   Visibility: 8mi
Dew Point: 27°   Wind: 3mph
Humidity: 75%   Direction: 30°NNE
Pressure: 30.31"   Gusts: NA
Location:  41.8°N, 73.09°W
Report Text: KOXC 220915Z 03003KT 8SM SCT016 BKN022 OVC028 01/M03 A3031 RMK AO1
Loading
Personal Weather Stations






























Interactive Weather Map New forecast layout! Learn more

10-Day Weather Forecast

Advertisements
Track Severe Weather on mobile